OIII/THR METAR and TAF weather

Enter ICAO airport designator
Station Type Date Time Source
OIII METAR 2019/06/27 10:00 UTC NOAA

OIII 271000Z 13012KT CAVOK 34/02 Q1012 A2989


Station Type Date Time Source
OIII Decoded METAR 2019/06/27 10:00 UTC NOAA

Tehran-Mehrabad, Iran (OIII) 35-41N 051-21E 1191M
Jun 27, 2019 - 06:00 AM EDT / 2019.06.27 1000 UTC
Wind: from the SE (130 degrees) at 14 MPH (12 KT):0
Visibility: greater than 7 mile(s):0
Temperature: 93 F (34 C)
Dew Point: 35 F (2 C)
Relative Humidity: 13%
Pressure (altimeter): 29.89 in. Hg (1012 hPa)
ob: OIII 271000Z 13012KT CAVOK 34/02 Q1012 A2989
cycle: 10

Station Type Date Time Source
OIII TAF 2019/06/27 06:36 UTC NOAA

TAF OIII 270530Z 2706/2812 16006KT 7000 FEW040 SCT100
TEMPO 2709/2815 16016KT
TEMPO 2718/2724 16020KT SCT040 BKN100
TEMPO 2809/2812 16020KT FEW040 BKN100

Example: see airport list